sensor_id;sensor_type;location;lat;lon;timestamp;pressure;altitude;pressure_sealevel;temperature;humidity
39075;BME280;24826;52.070;20.970;2023-01-25T00:01:07;61543.81;;;-147.04;100.00
39075;BME280;24826;52.070;20.970;2023-01-25T00:03:52;61535.88;;;-147.04;100.00
39075;BME280;24826;52.070;20.970;2023-01-25T00:06:37;61515.97;;;-147.04;100.00
39075;BME280;24826;52.070;20.970;2023-01-25T00:09:22;61527.91;;;-147.04;100.00
39075;BME280;24826;52.070;20.970;2023-01-25T00:12:07;61547.78;;;-147.04;100.00
39075;BME280;24826;52.070;20.970;2023-01-25T00:14:51;61525.91;;;-147.04;100.00
39075;BME280;24826;52.070;20.970;2023-01-25T00:17:36;61551.78;;;-147.04;100.00
39075;BME280;24826;52.070;20.970;2023-01-25T00:20:21;61525.91;;;-147.04;100.00
39075;BME280;24826;52.070;20.970;2023-01-25T00:23:05;61567.69;;;-147.04;100.00
39075;BME280;24826;52.070;20.970;2023-01-25T00:25:57;61515.97;;;-147.04;100.00
39075;BME280;24826;52.070;20.970;2023-01-25T00:28:41;61543.81;;;-147.04;100.00
39075;BME280;24826;52.070;20.970;2023-01-25T00:31:36;61547.78;;;-147.04;100.00
39075;BME280;24826;52.070;20.970;2023-01-25T00:40:09;61519.94;;;-147.04;100.00
39075;BME280;24826;52.070;20.970;2023-01-25T00:42:53;61551.78;;;-147.04;100.00
39075;BME280;24826;52.070;20.970;2023-01-25T00:45:39;61573.66;;;-147.04;100.00
39075;BME280;24826;52.070;20.970;2023-01-25T00:48:23;61527.91;;;-147.04;100.00
39075;BME280;24826;52.070;20.970;2023-01-25T00:51:08;61515.97;;;-147.04;99.23
39075;BME280;24826;52.070;20.970;2023-01-25T00:53:52;61539.84;;;-147.04;98.20
39075;BME280;24826;52.070;20.970;2023-01-25T00:56:37;61535.88;;;-147.04;97.28
39075;BME280;24826;52.070;20.970;2023-01-25T00:59:23;61575.63;;;-147.04;96.27
39075;BME280;24826;52.070;20.970;2023-01-25T01:02:07;61545.81;;;-147.04;96.90
39075;BME280;24826;52.070;20.970;2023-01-25T01:04:52;61539.84;;;-147.04;96.81
39075;BME280;24826;52.070;20.970;2023-01-25T01:07:36;61468.25;;;-147.04;96.69
39075;BME280;24826;52.070;20.970;2023-01-25T01:10:21;61515.97;;;-147.04;97.25
39075;BME280;24826;52.070;20.970;2023-01-25T01:13:06;61555.75;;;-147.04;95.22
39075;BME280;24826;52.070;20.970;2023-01-25T01:15:50;61537.84;;;-147.04;95.56
39075;BME280;24826;52.070;20.970;2023-01-25T01:18:35;61492.13;;;-147.04;95.92
39075;BME280;24826;52.070;20.970;2023-01-25T01:21:20;61519.94;;;-147.04;96.24
39075;BME280;24826;52.070;20.970;2023-01-25T01:24:04;61569.66;;;-147.04;95.59
39075;BME280;24826;52.070;20.970;2023-01-25T01:26:49;61486.16;;;-147.04;95.70
39075;BME280;24826;52.070;20.970;2023-01-25T01:29:33;61587.56;;;-147.04;95.24
39075;BME280;24826;52.070;20.970;2023-01-25T01:32:18;61512.00;;;-147.04;95.73
39075;BME280;24826;52.070;20.970;2023-01-25T01:35:03;61508.03;;;-147.04;95.07
39075;BME280;24826;52.070;20.970;2023-01-25T01:37:47;61551.78;;;-147.04;95.01
39075;BME280;24826;52.070;20.970;2023-01-25T01:40:32;61543.81;;;-147.04;94.01
39075;BME280;24826;52.070;20.970;2023-01-25T01:43:21;61551.78;;;-147.04;94.01
39075;BME280;24826;52.070;20.970;2023-01-25T01:46:24;61512.00;;;-147.04;92.77
39075;BME280;24826;52.070;20.970;2023-01-25T01:49:16;61512.00;;;-147.04;93.00
39075;BME280;24826;52.070;20.970;2023-01-25T01:52:09;61555.75;;;-147.04;93.11
39075;BME280;24826;52.070;20.970;2023-01-25T01:54:59;61529.91;;;-147.04;92.65
39075;BME280;24826;52.070;20.970;2023-01-25T01:57:51;61529.91;;;-147.04;92.45
39075;BME280;24826;52.070;20.970;2023-01-25T02:00:38;61535.88;;;-147.04;91.82
39075;BME280;24826;52.070;20.970;2023-01-25T02:03:23;61605.47;;;-147.04;92.36
39075;BME280;24826;52.070;20.970;2023-01-25T02:06:14;61549.78;;;-147.04;92.40
39075;BME280;24826;52.070;20.970;2023-01-25T02:09:00;61508.03;;;-147.04;93.67
39075;BME280;24826;52.070;20.970;2023-01-25T02:11:45;61539.84;;;-147.04;92.68
39075;BME280;24826;52.070;20.970;2023-01-25T02:14:31;61523.94;;;-147.04;92.95
39075;BME280;24826;52.070;20.970;2023-01-25T02:17:25;61527.91;;;-147.04;92.10
39075;BME280;24826;52.070;20.970;2023-01-25T02:23:29;61539.84;;;-147.04;91.28
39075;BME280;24826;52.070;20.970;2023-01-25T02:26:17;61523.94;;;-147.04;91.74
39075;BME280;24826;52.070;20.970;2023-01-25T02:29:05;61519.94;;;-147.04;92.06
39075;BME280;24826;52.070;20.970;2023-01-25T02:31:58;61529.91;;;-147.04;91.42
39075;BME280;24826;52.070;20.970;2023-01-25T02:34:43;61539.84;;;-147.04;92.58
39075;BME280;24826;52.070;20.970;2023-01-25T02:37:27;61504.03;;;-147.04;91.09
39075;BME280;24826;52.070;20.970;2023-01-25T02:40:12;61698.91;;;-147.04;91.37
39075;BME280;24826;52.070;20.970;2023-01-25T02:42:57;61535.88;;;-147.04;91.12
39075;BME280;24826;52.070;20.970;2023-01-25T02:45:45;61521.94;;;-147.04;90.06
39075;BME280;24826;52.070;20.970;2023-01-25T02:48:31;61533.88;;;-147.04;91.03
39075;BME280;24826;52.070;20.970;2023-01-25T02:51:15;61529.91;;;-147.04;90.13
39075;BME280;24826;52.070;20.970;2023-01-25T02:54:02;61559.72;;;-147.04;89.98
39075;BME280;24826;52.070;20.970;2023-01-25T02:56:47;61496.09;;;-147.04;90.58
39075;BME280;24826;52.070;20.970;2023-01-25T02:59:32;61535.88;;;-147.04;90.38
39075;BME280;24826;52.070;20.970;2023-01-25T03:02:16;61527.91;;;-147.04;90.38
39075;BME280;24826;52.070;20.970;2023-01-25T03:05:00;61583.59;;;-147.04;90.82
39075;BME280;24826;52.070;20.970;2023-01-25T03:07:45;61541.81;;;-147.04;91.21
39075;BME280;24826;52.070;20.970;2023-01-25T03:10:29;61512.00;;;-147.04;91.75
39075;BME280;24826;52.070;20.970;2023-01-25T03:13:14;61539.84;;;-147.04;91.74
39075;BME280;24826;52.070;20.970;2023-01-25T03:16:01;61543.81;;;-147.04;91.48
39075;BME280;24826;52.070;20.970;2023-01-25T03:18:46;61512.00;;;-147.04;90.92
39075;BME280;24826;52.070;20.970;2023-01-25T03:21:30;61535.88;;;-147.04;90.41
39075;BME280;24826;52.070;20.970;2023-01-25T03:24:15;61514.00;;;-147.04;89.71
39075;BME280;24826;52.070;20.970;2023-01-25T03:26:59;61551.78;;;-147.04;88.87
39075;BME280;24826;52.070;20.970;2023-01-25T03:30:01;61551.78;;;-147.04;89.75
39075;BME280;24826;52.070;20.970;2023-01-25T03:32:45;61567.69;;;-147.04;89.57
39075;BME280;24826;52.070;20.970;2023-01-25T03:35:30;61557.75;;;-147.04;89.49
39075;BME280;24826;52.070;20.970;2023-01-25T03:38:14;61523.94;;;-147.04;90.32
39075;BME280;24826;52.070;20.970;2023-01-25T03:40:59;61517.97;;;-147.04;90.06
39075;BME280;24826;52.070;20.970;2023-01-25T03:43:43;61525.91;;;-147.04;89.68
39075;BME280;24826;52.070;20.970;2023-01-25T03:46:27;61539.84;;;-147.04;89.72
39075;BME280;24826;52.070;20.970;2023-01-25T03:49:12;61519.94;;;-147.04;89.07
39075;BME280;24826;52.070;20.970;2023-01-25T03:51:56;61543.81;;;-147.04;89.17
39075;BME280;24826;52.070;20.970;2023-01-25T03:54:41;61508.03;;;-147.04;89.61
39075;BME280;24826;52.070;20.970;2023-01-25T03:57:25;61543.81;;;-147.04;90.61
39075;BME280;24826;52.070;20.970;2023-01-25T04:00:10;61567.69;;;-147.04;90.56
39075;BME280;24826;52.070;20.970;2023-01-25T04:02:56;61519.94;;;-147.04;90.51
39075;BME280;24826;52.070;20.970;2023-01-25T04:05:41;61535.88;;;-147.04;91.78
39075;BME280;24826;52.070;20.970;2023-01-25T04:08:25;61527.91;;;-147.04;91.17
39075;BME280;24826;52.070;20.970;2023-01-25T04:11:10;61535.88;;;-147.04;91.22
39075;BME280;24826;52.070;20.970;2023-01-25T04:13:55;61508.03;;;-147.04;91.29
39075;BME280;24826;52.070;20.970;2023-01-25T04:16:39;61515.97;;;-147.04;90.57
39075;BME280;24826;52.070;20.970;2023-01-25T04:19:24;61523.94;;;-147.04;91.34
39075;BME280;24826;52.070;20.970;2023-01-25T04:22:08;61543.81;;;-147.04;91.06
39075;BME280;24826;52.070;20.970;2023-01-25T04:24:52;61537.84;;;-147.04;92.02
39075;BME280;24826;52.070;20.970;2023-01-25T04:27:37;61543.81;;;-147.04;91.67
39075;BME280;24826;52.070;20.970;2023-01-25T04:30:22;61527.91;;;-147.04;91.35
39075;BME280;24826;52.070;20.970;2023-01-25T04:33:06;61549.78;;;-147.04;90.10
39075;BME280;24826;52.070;20.970;2023-01-25T04:35:51;61547.78;;;-147.04;90.79
39075;BME280;24826;52.070;20.970;2023-01-25T04:38:35;61545.81;;;-147.04;91.83
39075;BME280;24826;52.070;20.970;2023-01-25T04:41:20;61551.78;;;-147.04;91.52
39075;BME280;24826;52.070;20.970;2023-01-25T04:44:04;61557.75;;;-147.04;91.76
39075;BME280;24826;52.070;20.970;2023-01-25T04:46:49;61553.75;;;-147.04;91.87
39075;BME280;24826;52.070;20.970;2023-01-25T04:49:33;61535.88;;;-147.04;91.10
39075;BME280;24826;52.070;20.970;2023-01-25T04:52:18;61545.81;;;-147.04;91.27
39075;BME280;24826;52.070;20.970;2023-01-25T04:55:03;61537.84;;;-147.04;91.08
39075;BME280;24826;52.070;20.970;2023-01-25T04:57:48;61535.88;;;-147.04;91.37
39075;BME280;24826;52.070;20.970;2023-01-25T05:00:34;61531.88;;;-147.04;91.51
39075;BME280;24826;52.070;20.970;2023-01-25T05:03:18;61537.84;;;-147.04;90.88
39075;BME280;24826;52.070;20.970;2023-01-25T05:06:03;61543.81;;;-147.04;91.13
39075;BME280;24826;52.070;20.970;2023-01-25T05:08:48;61535.88;;;-147.04;91.56
39075;BME280;24826;52.070;20.970;2023-01-25T05:11:33;61539.84;;;-147.04;91.37
39075;BME280;24826;52.070;20.970;2023-01-25T05:14:17;61531.88;;;-147.04;92.25
39075;BME280;24826;52.070;20.970;2023-01-25T05:17:01;61527.91;;;-147.04;92.54
39075;BME280;24826;52.070;20.970;2023-01-25T05:19:46;61547.78;;;-147.04;92.16
39075;BME280;24826;52.070;20.970;2023-01-25T05:22:30;61504.03;;;-147.04;92.30
39075;BME280;24826;52.070;20.970;2023-01-25T05:25:14;61569.66;;;-147.04;92.16
39075;BME280;24826;52.070;20.970;2023-01-25T05:28:18;61521.94;;;-147.04;91.42
39075;BME280;24826;52.070;20.970;2023-01-25T05:31:03;61545.81;;;-147.04;90.66
39075;BME280;24826;52.070;20.970;2023-01-25T05:33:48;61539.84;;;-147.04;91.67
39075;BME280;24826;52.070;20.970;2023-01-25T05:36:32;61555.75;;;-147.04;91.57
39075;BME280;24826;52.070;20.970;2023-01-25T05:39:16;61529.91;;;-147.04;91.70
39075;BME280;24826;52.070;20.970;2023-01-25T05:42:00;61547.78;;;-147.04;91.66
39075;BME280;24826;52.070;20.970;2023-01-25T05:44:45;61512.00;;;-147.04;91.58
39075;BME280;24826;52.070;20.970;2023-01-25T05:47:29;61539.84;;;-147.04;91.80
39075;BME280;24826;52.070;20.970;2023-01-25T05:50:14;61545.81;;;-147.04;92.41
39075;BME280;24826;52.070;20.970;2023-01-25T05:52:58;61547.78;;;-147.04;91.97
39075;BME280;24826;52.070;20.970;2023-01-25T05:55:43;61547.78;;;-147.04;91.03
39075;BME280;24826;52.070;20.970;2023-01-25T05:58:27;61541.81;;;-147.04;91.79
39075;BME280;24826;52.070;20.970;2023-01-25T06:01:11;61555.75;;;-147.04;91.26
39075;BME280;24826;52.070;20.970;2023-01-25T06:03:56;61561.72;;;-147.04;91.72
39075;BME280;24826;52.070;20.970;2023-01-25T06:06:40;61541.81;;;-147.04;91.34
39075;BME280;24826;52.070;20.970;2023-01-25T06:09:24;61523.94;;;-147.04;91.47
39075;BME280;24826;52.070;20.970;2023-01-25T06:12:10;61603.47;;;-147.04;91.23
39075;BME280;24826;52.070;20.970;2023-01-25T06:14:55;61539.84;;;-147.04;91.41
39075;BME280;24826;52.070;20.970;2023-01-25T06:17:40;61575.63;;;-147.04;91.96
39075;BME280;24826;52.070;20.970;2023-01-25T06:20:24;61551.78;;;-147.04;91.32
39075;BME280;24826;52.070;20.970;2023-01-25T06:23:09;61549.78;;;-147.04;91.95
39075;BME280;24826;52.070;20.970;2023-01-25T06:26:02;61537.84;;;-147.04;92.09
39075;BME280;24826;52.070;20.970;2023-01-25T06:28:47;61515.97;;;-147.04;91.62
39075;BME280;24826;52.070;20.970;2023-01-25T06:31:31;61525.91;;;-147.04;91.51
39075;BME280;24826;52.070;20.970;2023-01-25T06:34:16;61559.72;;;-147.04;92.17
39075;BME280;24826;52.070;20.970;2023-01-25T06:37:00;61571.66;;;-147.04;92.35
39075;BME280;24826;52.070;20.970;2023-01-25T06:39:44;61551.78;;;-147.04;92.38
39075;BME280;24826;52.070;20.970;2023-01-25T06:42:28;61549.78;;;-147.04;92.73
39075;BME280;24826;52.070;20.970;2023-01-25T06:45:13;61555.75;;;-147.04;92.68
39075;BME280;24826;52.070;20.970;2023-01-25T06:47:57;61565.69;;;-147.04;93.08
39075;BME280;24826;52.070;20.970;2023-01-25T06:50:42;61527.91;;;-147.04;92.78
39075;BME280;24826;52.070;20.970;2023-01-25T06:53:28;61559.72;;;-147.04;92.80
39075;BME280;24826;52.070;20.970;2023-01-25T06:56:15;61531.88;;;-147.04;92.19
39075;BME280;24826;52.070;20.970;2023-01-25T06:59:00;61555.75;;;-147.04;92.29
39075;BME280;24826;52.070;20.970;2023-01-25T07:01:45;61545.81;;;-147.04;91.95
39075;BME280;24826;52.070;20.970;2023-01-25T07:04:29;61565.69;;;-147.04;91.97
39075;BME280;24826;52.070;20.970;2023-01-25T07:07:14;61543.81;;;-147.04;91.75
39075;BME280;24826;52.070;20.970;2023-01-25T07:09:58;61567.69;;;-147.04;92.30
39075;BME280;24826;52.070;20.970;2023-01-25T07:12:44;61559.72;;;-147.04;91.67
39075;BME280;24826;52.070;20.970;2023-01-25T07:15:29;61571.66;;;-147.04;92.92
39075;BME280;24826;52.070;20.970;2023-01-25T07:18:13;61547.78;;;-147.04;92.58
39075;BME280;24826;52.070;20.970;2023-01-25T07:21:12;61555.75;;;-147.04;92.07
39075;BME280;24826;52.070;20.970;2023-01-25T07:24:02;61531.88;;;-147.04;90.67
39075;BME280;24826;52.070;20.970;2023-01-25T07:26:47;61531.88;;;-147.04;90.99
39075;BME280;24826;52.070;20.970;2023-01-25T07:29:32;61565.69;;;-147.04;91.71
39075;BME280;24826;52.070;20.970;2023-01-25T07:32:16;61555.75;;;-147.04;91.93
39075;BME280;24826;52.070;20.970;2023-01-25T07:35:01;61545.81;;;-147.04;92.07
39075;BME280;24826;52.070;20.970;2023-01-25T07:37:45;61547.78;;;-147.04;92.28
39075;BME280;24826;52.070;20.970;2023-01-25T07:40:29;61543.81;;;-147.04;92.75
39075;BME280;24826;52.070;20.970;2023-01-25T07:43:13;61537.84;;;-147.04;92.64
39075;BME280;24826;52.070;20.970;2023-01-25T07:46:04;61531.88;;;-147.04;93.21
39075;BME280;24826;52.070;20.970;2023-01-25T07:48:50;61547.78;;;-147.04;93.49
39075;BME280;24826;52.070;20.970;2023-01-25T07:51:35;61553.75;;;-147.04;93.43
39075;BME280;24826;52.070;20.970;2023-01-25T07:54:20;61571.66;;;-147.04;93.23
39075;BME280;24826;52.070;20.970;2023-01-25T07:57:04;61607.44;;;-147.04;93.03
39075;BME280;24826;52.070;20.970;2023-01-25T07:59:49;61535.88;;;-147.04;93.23
39075;BME280;24826;52.070;20.970;2023-01-25T08:02:34;61557.75;;;-147.04;92.92
39075;BME280;24826;52.070;20.970;2023-01-25T08:05:18;61517.97;;;-147.04;93.37
39075;BME280;24826;52.070;20.970;2023-01-25T08:08:03;61561.72;;;-147.04;93.41
39075;BME280;24826;52.070;20.970;2023-01-25T08:10:47;61575.63;;;-147.04;93.41
39075;BME280;24826;52.070;20.970;2023-01-25T08:13:32;61529.91;;;-147.04;93.60
39075;BME280;24826;52.070;20.970;2023-01-25T08:16:18;61722.78;;;-147.04;93.11
39075;BME280;24826;52.070;20.970;2023-01-25T08:19:03;61551.78;;;-147.04;93.43
39075;BME280;24826;52.070;20.970;2023-01-25T08:21:48;61561.72;;;-147.04;93.16
39075;BME280;24826;52.070;20.970;2023-01-25T08:24:32;61545.81;;;-147.04;93.15
39075;BME280;24826;52.070;20.970;2023-01-25T08:27:16;61539.84;;;-147.04;92.73
39075;BME280;24826;52.070;20.970;2023-01-25T08:30:01;61553.75;;;-147.04;93.63
39075;BME280;24826;52.070;20.970;2023-01-25T08:32:45;61525.91;;;-147.04;93.63
39075;BME280;24826;52.070;20.970;2023-01-25T08:35:30;61535.88;;;-147.04;93.23
39075;BME280;24826;52.070;20.970;2023-01-25T08:38:15;61563.69;;;-147.04;93.39
39075;BME280;24826;52.070;20.970;2023-01-25T08:41:12;61575.63;;;-147.04;93.23
39075;BME280;24826;52.070;20.970;2023-01-25T08:43:57;61571.66;;;-147.04;93.36
39075;BME280;24826;52.070;20.970;2023-01-25T08:46:42;61543.81;;;-147.04;93.00
39075;BME280;24826;52.070;20.970;2023-01-25T08:49:26;61567.69;;;-147.04;92.63
39075;BME280;24826;52.070;20.970;2023-01-25T08:52:11;61551.78;;;-147.04;92.53
39075;BME280;24826;52.070;20.970;2023-01-25T08:54:57;61515.97;;;-147.04;93.61
39075;BME280;24826;52.070;20.970;2023-01-25T08:57:42;61537.84;;;-147.04;93.01
39075;BME280;24826;52.070;20.970;2023-01-25T09:00:27;61579.59;;;-147.04;92.83
39075;BME280;24826;52.070;20.970;2023-01-25T09:03:12;61599.50;;;-147.04;92.68
39075;BME280;24826;52.070;20.970;2023-01-25T09:05:56;61585.56;;;-147.04;92.65
39075;BME280;24826;52.070;20.970;2023-01-25T09:08:41;61577.63;;;-147.04;92.38
39075;BME280;24826;52.070;20.970;2023-01-25T09:11:26;61539.84;;;-147.04;92.22
39075;BME280;24826;52.070;20.970;2023-01-25T09:14:11;61587.56;;;-147.04;92.52
39075;BME280;24826;52.070;20.970;2023-01-25T09:16:55;61553.75;;;-147.04;91.98
39075;BME280;24826;52.070;20.970;2023-01-25T09:19:39;61549.78;;;-147.04;92.18
39075;BME280;24826;52.070;20.970;2023-01-25T09:22:25;61555.75;;;-147.04;92.26
39075;BME280;24826;52.070;20.970;2023-01-25T09:25:09;61549.78;;;-147.04;92.42
39075;BME280;24826;52.070;20.970;2023-01-25T09:27:54;61553.75;;;-147.04;92.33
39075;BME280;24826;52.070;20.970;2023-01-25T09:30:39;61521.94;;;-147.04;92.07
39075;BME280;24826;52.070;20.970;2023-01-25T09:33:33;61561.72;;;-147.04;92.35
39075;BME280;24826;52.070;20.970;2023-01-25T09:36:19;61692.97;;;-147.04;92.58
39075;BME280;24826;52.070;20.970;2023-01-25T09:39:04;61559.72;;;-147.04;92.05
39075;BME280;24826;52.070;20.970;2023-01-25T09:44:54;61555.75;;;-147.04;92.55
39075;BME280;24826;52.070;20.970;2023-01-25T09:47:50;61559.72;;;-147.04;93.33
39075;BME280;24826;52.070;20.970;2023-01-25T09:53:39;61591.53;;;-147.04;94.09
39075;BME280;24826;52.070;20.970;2023-01-25T09:56:27;61597.50;;;-147.04;93.58
39075;BME280;24826;52.070;20.970;2023-01-25T09:59:17;61627.34;;;-147.04;93.18
39075;BME280;24826;52.070;20.970;2023-01-25T10:02:17;61595.53;;;-147.04;93.78
39075;BME280;24826;52.070;20.970;2023-01-25T10:05:12;61593.53;;;-147.04;93.31
39075;BME280;24826;52.070;20.970;2023-01-25T10:11:26;61591.53;;;-147.04;92.85
39075;BME280;24826;52.070;20.970;2023-01-25T10:14:13;61559.72;;;-147.04;92.73
39075;BME280;24826;52.070;20.970;2023-01-25T10:26:26;61583.59;;;-147.04;92.05
39075;BME280;24826;52.070;20.970;2023-01-25T10:29:34;61591.53;;;-147.04;92.07
39075;BME280;24826;52.070;20.970;2023-01-25T10:32:30;61655.16;;;-147.04;92.43
39075;BME280;24826;52.070;20.970;2023-01-25T10:35:23;61599.50;;;-147.04;91.91
39075;BME280;24826;52.070;20.970;2023-01-25T10:38:29;61603.47;;;-147.04;92.02
39075;BME280;24826;52.070;20.970;2023-01-25T10:41:26;61595.53;;;-147.04;92.02
39075;BME280;24826;52.070;20.970;2023-01-25T10:44:13;61587.56;;;-147.04;92.25
39075;BME280;24826;52.070;20.970;2023-01-25T10:50:03;61593.53;;;-147.04;91.52
39075;BME280;24826;52.070;20.970;2023-01-25T10:52:57;61623.34;;;-147.04;91.22
39075;BME280;24826;52.070;20.970;2023-01-25T10:56:11;61579.59;;;-147.04;91.74
39075;BME280;24826;52.070;20.970;2023-01-25T10:59:07;61557.75;;;-147.04;91.94
39075;BME280;24826;52.070;20.970;2023-01-25T11:02:37;61591.53;;;-147.04;91.96
39075;BME280;24826;52.070;20.970;2023-01-25T11:05:37;61611.44;;;-147.04;92.08
39075;BME280;24826;52.070;20.970;2023-01-25T11:11:36;61569.66;;;-147.04;91.63
39075;BME280;24826;52.070;20.970;2023-01-25T11:14:23;61609.44;;;-147.04;91.03
39075;BME280;24826;52.070;20.970;2023-01-25T11:17:25;61563.69;;;-147.04;91.09
39075;BME280;24826;52.070;20.970;2023-01-25T11:20:18;61575.63;;;-147.04;90.57
39075;BME280;24826;52.070;20.970;2023-01-25T11:23:23;61583.59;;;-147.04;91.67
39075;BME280;24826;52.070;20.970;2023-01-25T11:26:14;61605.47;;;-147.04;91.84
39075;BME280;24826;52.070;20.970;2023-01-25T11:29:20;61595.53;;;-147.04;91.02
39075;BME280;24826;52.070;20.970;2023-01-25T11:32:15;61611.44;;;-147.04;90.43
39075;BME280;24826;52.070;20.970;2023-01-25T11:35:13;61565.69;;;-147.04;91.25
39075;BME280;24826;52.070;20.970;2023-01-25T11:38:08;61577.63;;;-147.04;91.57
39075;BME280;24826;52.070;20.970;2023-01-25T11:41:09;61563.69;;;-147.04;91.97
39075;BME280;24826;52.070;20.970;2023-01-25T11:55:42;61527.91;;;-147.04;92.59
39075;BME280;24826;52.070;20.970;2023-01-25T12:01:35;61510.00;;;-147.04;92.68
39075;BME280;24826;52.070;20.970;2023-01-25T12:04:46;61587.56;;;-147.04;92.53
39075;BME280;24826;52.070;20.970;2023-01-25T12:10:58;61579.59;;;-147.04;92.28
39075;BME280;24826;52.070;20.970;2023-01-25T12:16:52;61599.50;;;-147.04;92.40
39075;BME280;24826;52.070;20.970;2023-01-25T12:19:53;61559.72;;;-147.04;92.52
39075;BME280;24826;52.070;20.970;2023-01-25T12:22:52;61549.78;;;-147.04;92.38
39075;BME280;24826;52.070;20.970;2023-01-25T12:28:32;61575.63;;;-147.04;92.83
39075;BME280;24826;52.070;20.970;2023-01-25T12:31:24;61555.75;;;-147.04;93.16
39075;BME280;24826;52.070;20.970;2023-01-25T12:34:20;61575.63;;;-147.04;93.71
39075;BME280;24826;52.070;20.970;2023-01-25T12:37:16;61577.63;;;-147.04;94.03
39075;BME280;24826;52.070;20.970;2023-01-25T12:40:14;61571.66;;;-147.04;93.46
39075;BME280;24826;52.070;20.970;2023-01-25T12:43:00;61535.88;;;-147.04;93.18
39075;BME280;24826;52.070;20.970;2023-01-25T12:45:45;61539.84;;;-147.04;93.26
39075;BME280;24826;52.070;20.970;2023-01-25T12:48:37;61551.78;;;-147.04;93.32
39075;BME280;24826;52.070;20.970;2023-01-25T12:51:28;61541.81;;;-147.04;93.38
39075;BME280;24826;52.070;20.970;2023-01-25T12:54:26;61567.69;;;-147.04;93.52
39075;BME280;24826;52.070;20.970;2023-01-25T12:57:28;61575.63;;;-147.04;93.74
39075;BME280;24826;52.070;20.970;2023-01-25T13:00:19;61551.78;;;-147.04;93.08
39075;BME280;24826;52.070;20.970;2023-01-25T13:03:17;61527.91;;;-147.04;93.25
39075;BME280;24826;52.070;20.970;2023-01-25T13:06:21;61535.88;;;-147.04;93.44
39075;BME280;24826;52.070;20.970;2023-01-25T13:09:12;61563.69;;;-147.04;93.76
39075;BME280;24826;52.070;20.970;2023-01-25T13:12:02;61541.81;;;-147.04;93.17
39075;BME280;24826;52.070;20.970;2023-01-25T13:14:47;61559.72;;;-147.04;93.28
39075;BME280;24826;52.070;20.970;2023-01-25T13:17:31;61504.03;;;-147.04;93.28
39075;BME280;24826;52.070;20.970;2023-01-25T13:23:31;61555.75;;;-147.04;92.81
39075;BME280;24826;52.070;20.970;2023-01-25T13:35:32;61567.69;;;-147.04;93.32
39075;BME280;24826;52.070;20.970;2023-01-25T13:38:24;61577.63;;;-147.04;93.37
39075;BME280;24826;52.070;20.970;2023-01-25T13:41:14;61535.88;;;-147.04;93.77
39075;BME280;24826;52.070;20.970;2023-01-25T13:44:21;61547.78;;;-147.04;93.79
39075;BME280;24826;52.070;20.970;2023-01-25T13:47:32;61551.78;;;-147.04;92.69
39075;BME280;24826;52.070;20.970;2023-01-25T13:50:23;61523.94;;;-147.04;92.30
39075;BME280;24826;52.070;20.970;2023-01-25T13:56:00;61561.72;;;-147.04;94.34
39075;BME280;24826;52.070;20.970;2023-01-25T13:58:45;61531.88;;;-147.04;94.03
39075;BME280;24826;52.070;20.970;2023-01-25T14:01:33;61545.81;;;-147.04;93.16
39075;BME280;24826;52.070;20.970;2023-01-25T14:04:19;61541.81;;;-147.04;93.66
39075;BME280;24826;52.070;20.970;2023-01-25T14:07:04;61515.97;;;-147.04;93.49
39075;BME280;24826;52.070;20.970;2023-01-25T14:09:52;61583.59;;;-147.04;93.04
39075;BME280;24826;52.070;20.970;2023-01-25T14:12:40;61523.94;;;-147.04;93.57
39075;BME280;24826;52.070;20.970;2023-01-25T14:15:27;61553.75;;;-147.04;93.07
39075;BME280;24826;52.070;20.970;2023-01-25T14:18:16;61563.69;;;-147.04;93.41
39075;BME280;24826;52.070;20.970;2023-01-25T14:21:14;61531.88;;;-147.04;93.01
39075;BME280;24826;52.070;20.970;2023-01-25T14:24:08;61557.75;;;-147.04;93.21
39075;BME280;24826;52.070;20.970;2023-01-25T14:26:54;61539.84;;;-147.04;93.32
39075;BME280;24826;52.070;20.970;2023-01-25T14:29:39;61573.66;;;-147.04;93.78
39075;BME280;24826;52.070;20.970;2023-01-25T14:32:25;61525.91;;;-147.04;94.04
39075;BME280;24826;52.070;20.970;2023-01-25T14:38:36;61575.63;;;-147.04;93.46
39075;BME280;24826;52.070;20.970;2023-01-25T14:41:33;61539.84;;;-147.04;94.19
39075;BME280;24826;52.070;20.970;2023-01-25T14:44:17;61557.75;;;-147.04;94.52
39075;BME280;24826;52.070;20.970;2023-01-25T14:47:29;61527.91;;;-147.04;94.81
39075;BME280;24826;52.070;20.970;2023-01-25T14:50:38;61523.94;;;-147.04;94.79
39075;BME280;24826;52.070;20.970;2023-01-25T14:53:23;61519.94;;;-147.04;94.34
39075;BME280;24826;52.070;20.970;2023-01-25T14:56:29;61551.78;;;-147.04;93.96
39075;BME280;24826;52.070;20.970;2023-01-25T14:59:24;61525.91;;;-147.04;94.13
39075;BME280;24826;52.070;20.970;2023-01-25T15:10:57;61559.72;;;-147.04;93.84
39075;BME280;24826;52.070;20.970;2023-01-25T15:14:03;61535.88;;;-147.04;94.31
39075;BME280;24826;52.070;20.970;2023-01-25T15:16:56;61531.88;;;-147.04;94.39
39075;BME280;24826;52.070;20.970;2023-01-25T15:19:51;61523.94;;;-147.04;94.71
39075;BME280;24826;52.070;20.970;2023-01-25T15:22:35;61559.72;;;-147.04;94.66
39075;BME280;24826;52.070;20.970;2023-01-25T15:25:19;61529.91;;;-147.04;94.48
39075;BME280;24826;52.070;20.970;2023-01-25T15:28:05;61543.81;;;-147.04;94.75
39075;BME280;24826;52.070;20.970;2023-01-25T15:30:49;61535.88;;;-147.04;94.61
39075;BME280;24826;52.070;20.970;2023-01-25T15:33:35;61504.03;;;-147.04;94.55
39075;BME280;24826;52.070;20.970;2023-01-25T15:36:19;61539.84;;;-147.04;94.92
39075;BME280;24826;52.070;20.970;2023-01-25T15:39:05;61547.78;;;-147.04;94.91
39075;BME280;24826;52.070;20.970;2023-01-25T15:41:49;61514.00;;;-147.04;94.25